Time;durP1;ratioP1;P1;durP2;ratioP2;P2;SDS_P1;SDS_P2;PMS_P1;PMS_P2;Temp;Humidity;BMP_temperature;BMP_pressure;BME280_temperature;BME280_humidity;BME280_pressure;Samples;Min_cycle;Max_cycle;Signal;HPM_P1;HPM_P2
2023/09/21 00:02:18;;;;;;;;;;;;;;;17.66;78.19;99896.94;5009456;28;1009;-73
2023/09/21 00:04:43;;;;;;;;;;;;;;;17.69;78.14;99907.88;4997765;28;1266;-74
2023/09/21 00:07:08;;;;;;;;;;;;;;;17.71;78.05;99900.59;5015677;28;1084;-75
2023/09/21 00:09:34;;;;;;;;;;;;;;;17.73;77.60;99887.34;5010685;28;1090;-76
2023/09/21 00:11:59;;;;;;;;;;;;;;;17.74;77.64;99895.00;5011823;28;1897;-74
2023/09/21 00:14:24;;;;;;;;;;;;;;;17.74;77.55;99889.78;5013422;28;1138;-75
2023/09/21 00:16:49;;;;;;;;;;;;;;;17.75;77.60;99885.31;5013507;28;1173;-74
2023/09/21 00:19:16;;;;;;;;;;;;;;;17.74;77.39;99878.47;5017272;28;1175;-75
2023/09/21 00:21:43;;;;;;;;;;;;;;;17.72;77.33;99881.28;5006785;28;1014;-76
2023/09/21 00:24:09;;;;;;;;;;;;;;;17.73;77.45;99871.59;5003438;28;1007;-75
2023/09/21 00:26:34;;;;;;;;;;;;;;;17.74;77.33;99873.22;5005652;28;979;-74
2023/09/21 00:29:02;;;;;;;;;;;;;;;17.73;77.25;99866.38;4991405;28;1358;-74
2023/09/21 00:31:29;;;;;;;;;;;;;;;17.72;77.29;99860.31;4995630;28;1949;-75
2023/09/21 00:33:54;;;;;;;;;;;;;;;17.71;77.27;99858.63;5012686;28;1021;-75
2023/09/21 00:36:21;;;;;;;;;;;;;;;17.72;77.03;99859.47;5014658;28;1085;-76
2023/09/21 00:38:46;;;;;;;;;;;;;;;17.72;77.17;99851.59;5016889;28;1521;-75
2023/09/21 00:41:12;;;;;;;;;;;;;;;17.71;77.18;99848.16;5009772;28;1105;-75
2023/09/21 00:43:37;;;;;;;;;;;;;;;17.72;77.13;99849.81;5017758;28;1123;-76
2023/09/21 00:46:05;;;;;;;;;;;;;;;17.73;76.65;99850.63;5015469;28;1213;-74
2023/09/21 00:48:33;;;;;;;;;;;;;;;17.72;76.82;99839.34;4998528;28;1319;-73
2023/09/21 00:50:59;;;;;;;;;;;;;;;17.72;76.65;99838.50;5017377;28;1926;-74
2023/09/21 00:53:28;;;;;;;;;;;;;;;17.70;76.73;99835.25;5000963;28;1170;-74
2023/09/21 00:55:58;;;;;;;;;;;;;;;17.72;76.47;99838.50;5014488;28;939;-75
2023/09/21 00:58:25;;;;;;;;;;;;;;;17.73;76.13;99834.91;5013101;28;1127;-74
2023/09/21 01:00:51;;;;;;;;;;;;;;;17.74;76.29;99826.00;5018881;28;1110;-74
2023/09/21 01:03:17;;;;;;;;;;;;;;;17.74;76.30;99818.94;5011051;28;1285;-74
2023/09/21 01:05:45;;;;;;;;;;;;;;;17.74;76.17;99815.53;5014359;28;1110;-75
2023/09/21 01:08:17;;;;;;;;;;;;;;;17.73;76.11;99819.16;5015052;28;1080;-75
2023/09/21 01:10:49;;;;;;;;;;;;;;;17.72;76.28;99817.50;5005560;28;1890;-76
2023/09/21 01:13:18;;;;;;;;;;;;;;;17.70;75.81;99799.34;5009810;28;1092;-75
2023/09/21 01:15:58;;;;;;;;;;;;;;;17.71;76.01;99802.75;5013691;28;1136;-74
2023/09/21 01:18:23;;;;;;;;;;;;;;;17.70;75.98;99793.28;5010115;28;1230;-74
2023/09/21 01:20:51;;;;;;;;;;;;;;;17.69;75.87;99794.28;5009025;28;1110;-75
2023/09/21 01:23:20;;;;;;;;;;;;;;;17.69;76.21;99791.66;5004114;28;932;-74
2023/09/21 01:25:46;;;;;;;;;;;;;;;17.67;76.14;99789.25;5006664;28;1123;-74
2023/09/21 01:28:18;;;;;;;;;;;;;;;17.67;75.82;99773.50;5008876;28;1027;-74
2023/09/21 01:30:44;;;;;;;;;;;;;;;17.66;75.99;99786.81;4992790;28;1970;-75
2023/09/21 01:33:11;;;;;;;;;;;;;;;17.65;75.43;99777.31;5006485;28;1042;-76
2023/09/21 01:35:36;;;;;;;;;;;;;;;17.63;75.57;99779.34;4989007;28;1385;-73
2023/09/21 01:38:02;;;;;;;;;;;;;;;17.64;75.65;99775.72;5011862;28;1049;-75
2023/09/21 01:40:27;;;;;;;;;;;;;;;17.61;75.34;99778.75;5003204;28;1307;-75
2023/09/21 01:42:53;;;;;;;;;;;;;;;17.61;75.45;99769.06;5017583;28;1225;-74
2023/09/21 01:45:18;;;;;;;;;;;;;;;17.61;75.46;99763.00;5021450;28;1433;-75
2023/09/21 01:47:44;;;;;;;;;;;;;;;17.59;75.04;99757.13;5011632;28;1081;-76
2023/09/21 01:50:15;;;;;;;;;;;;;;;17.58;75.38;99752.91;5015927;28;1238;-74
2023/09/21 01:52:40;;;;;;;;;;;;;;;17.58;74.91;99758.16;5012563;28;1882;-77
2023/09/21 01:55:07;;;;;;;;;;;;;;;17.59;74.76;99759.75;5019412;28;1376;-78
2023/09/21 01:57:33;;;;;;;;;;;;;;;17.59;75.13;99759.75;5012585;28;1229;-75
2023/09/21 01:59:58;;;;;;;;;;;;;;;17.58;74.89;99758.16;5009600;28;1346;-75
2023/09/21 02:02:23;;;;;;;;;;;;;;;17.57;75.16;99753.91;5012134;28;1250;-75
2023/09/21 02:04:49;;;;;;;;;;;;;;;17.56;75.23;99760.16;5001208;28;1336;-75
2023/09/21 02:07:14;;;;;;;;;;;;;;;17.53;75.35;99762.16;5015384;28;1480;-74
2023/09/21 02:09:40;;;;;;;;;;;;;;;17.51;75.25;99753.69;5016044;28;1230;-74
2023/09/21 02:12:05;;;;;;;;;;;;;;;17.50;75.25;99752.06;5014831;28;1953;-75
2023/09/21 02:14:30;;;;;;;;;;;;;;;17.49;75.29;99750.47;5008289;28;1087;-74
2023/09/21 02:16:56;;;;;;;;;;;;;;;17.47;74.87;99752.44;5013628;28;1062;-75
2023/09/21 02:19:21;;;;;;;;;;;;;;;17.46;75.23;99744.78;5011150;28;1393;-75
2023/09/21 02:21:49;;;;;;;;;;;;;;;17.44;75.34;99737.13;5005992;28;1189;-76
2023/09/21 02:24:15;;;;;;;;;;;;;;;17.42;75.43;99744.38;5023090;28;1092;-74
2023/09/21 02:26:40;;;;;;;;;;;;;;;17.41;75.49;99748.00;5034218;28;1269;-74
2023/09/21 02:29:06;;;;;;;;;;;;;;;17.38;75.46;99743.16;5027145;28;1097;-74
2023/09/21 02:31:31;;;;;;;;;;;;;;;17.37;75.37;99752.00;5029663;28;1906;-73
2023/09/21 02:33:56;;;;;;;;;;;;;;;17.35;75.40;99746.16;5025924;28;1054;-74
2023/09/21 02:36:21;;;;;;;;;;;;;;;17.34;75.48;99735.88;5009905;28;1153;-74
2023/09/21 02:38:47;;;;;;;;;;;;;;;17.33;75.55;99742.94;5027940;28;1278;-74
2023/09/21 02:41:12;;;;;;;;;;;;;;;17.31;75.71;99737.06;5008957;28;1300;-76
2023/09/21 02:43:40;;;;;;;;;;;;;;;17.29;75.57;99733.84;5031258;28;1009;-74
2023/09/21 02:46:06;;;;;;;;;;;;;;;17.28;75.93;99732.22;5032012;28;1361;-74
2023/09/21 02:48:31;;;;;;;;;;;;;;;17.26;75.64;99736.84;5036229;28;1056;-76
2023/09/21 02:50:58;;;;;;;;;;;;;;;17.25;76.10;99732.59;5038048;28;1985;-75
2023/09/21 02:53:23;;;;;;;;;;;;;;;17.23;75.84;99726.75;5029129;28;1212;-74
2023/09/21 02:55:50;;;;;;;;;;;;;;;17.21;76.10;99726.16;5043136;28;1106;-74
2023/09/21 02:58:15;;;;;;;;;;;;;;;17.21;76.04;99726.16;5026253;28;1093;-75
2023/09/21 03:00:51;;;;;;;;;;;;;;;17.17;76.34;99730.97;5038529;28;1059;-74
2023/09/21 03:03:18;;;;;;;;;;;;;;;17.15;76.16;99719.06;5012312;28;1350;-73
2023/09/21 03:05:47;;;;;;;;;;;;;;;17.11;76.24;99726.50;5039635;28;1284;-74
2023/09/21 03:08:15;;;;;;;;;;;;;;;17.09;76.35;99722.44;5032442;28;1547;-75
2023/09/21 03:10:41;;;;;;;;;;;;;;;17.08;76.33;99723.44;5024415;28;1973;-73
2023/09/21 03:13:06;;;;;;;;;;;;;;;17.05;76.76;99710.75;5029292;28;1292;-74
2023/09/21 03:15:33;;;;;;;;;;;;;;;17.04;76.83;99711.78;5018716;28;1225;-76
2023/09/21 03:17:58;;;;;;;;;;;;;;;17.01;76.98;99714.75;5012287;28;1311;-74
2023/09/21 03:20:37;;;;;;;;;;;;;;;16.99;76.93;99713.16;5028535;28;1464;-76
2023/09/21 03:23:09;;;;;;;;;;;;;;;16.97;76.81;99698.63;5017356;28;1319;-74
2023/09/21 03:25:40;;;;;;;;;;;;;;;16.93;76.91;99703.44;5017772;28;1187;-75
2023/09/21 03:28:10;;;;;;;;;;;;;;;16.90;77.04;99703.81;5032909;28;1092;-74
2023/09/21 03:30:35;;;;;;;;;;;;;;;16.90;77.24;99703.81;5035548;28;1961;-73
2023/09/21 03:33:00;;;;;;;;;;;;;;;16.86;77.16;99713.09;5028244;28;1140;-75
2023/09/21 03:35:26;;;;;;;;;;;;;;;16.85;77.43;99703.59;5032707;28;1153;-75
2023/09/21 03:37:53;;;;;;;;;;;;;;;16.85;77.43;99698.34;5026207;28;1127;-74
2023/09/21 03:40:19;;;;;;;;;;;;;;;16.82;77.50;99696.13;5028994;28;1156;-74
2023/09/21 03:42:44;;;;;;;;;;;;;;;16.82;77.44;99705.81;5012858;28;1473;-75
2023/09/21 03:45:11;;;;;;;;;;;;;;;16.81;77.60;99689.28;5032329;28;1174;-75
2023/09/21 03:47:37;;;;;;;;;;;;;;;16.81;77.58;99689.28;5019892;28;1052;-74
2023/09/21 03:50:05;;;;;;;;;;;;;;;16.79;77.59;99686.03;5018357;28;1123;-75
2023/09/21 03:52:31;;;;;;;;;;;;;;;16.79;77.94;99686.03;5036879;28;1949;-74
2023/09/21 03:54:57;;;;;;;;;;;;;;;16.79;77.69;99686.03;5039652;28;1089;-74
2023/09/21 03:57:22;;;;;;;;;;;;;;;16.79;77.87;99686.03;5028504;28;1039;-74
2023/09/21 03:59:47;;;;;;;;;;;;;;;16.79;78.03;99675.56;5017023;28;1338;-77
2023/09/21 04:02:19;;;;;;;;;;;;;;;16.79;78.04;99678.19;5032951;28;1246;-74
2023/09/21 04:04:44;;;;;;;;;;;;;;;16.79;78.15;99665.09;5029832;28;997;-74
2023/09/21 04:07:12;;;;;;;;;;;;;;;16.79;77.67;99670.31;5028701;28;1132;-73
2023/09/21 04:09:37;;;;;;;;;;;;;;;16.81;78.16;99673.56;5033938;28;1086;-74
2023/09/21 04:12:03;;;;;;;;;;;;;;;16.82;77.84;99669.94;5036777;28;1894;-74
2023/09/21 04:14:29;;;;;;;;;;;;;;;16.84;78.20;99661.88;5034922;28;1289;-74
2023/09/21 04:16:56;;;;;;;;;;;;;;;16.86;77.86;99676.44;5013649;28;1329;-74
2023/09/21 04:19:22;;;;;;;;;;;;;;;16.88;77.83;99673.59;5030450;28;1041;-74
2023/09/21 04:21:47;;;;;;;;;;;;;;;16.88;77.87;99674.41;5025679;28;1000;-74
2023/09/21 04:24:13;;;;;;;;;;;;;;;16.90;78.22;99677.63;5036322;28;1126;-74
2023/09/21 04:26:39;;;;;;;;;;;;;;;16.92;78.04;99675.66;5027069;28;1159;-75
2023/09/21 04:29:06;;;;;;;;;;;;;;;16.94;77.91;99673.63;5030743;28;1154;-74
2023/09/21 04:31:32;;;;;;;;;;;;;;;16.97;78.06;99668.00;5032777;28;1965;-74
2023/09/21 04:33:57;;;;;;;;;;;;;;;16.98;77.81;99677.50;5015661;28;1164;-75
2023/09/21 04:36:24;;;;;;;;;;;;;;;16.99;77.92;99680.91;5014178;28;1343;-76
2023/09/21 04:38:50;;;;;;;;;;;;;;;17.02;78.00;99685.75;5006987;28;1205;-74
2023/09/21 04:41:16;;;;;;;;;;;;;;;17.04;78.05;99682.94;5030516;28;1056;-74
2023/09/21 04:43:41;;;;;;;;;;;;;;;17.06;77.96;99675.69;5031504;28;1111;-74
2023/09/21 04:46:06;;;;;;;;;;;;;;;17.08;77.98;99671.06;5029773;28;1193;-74
2023/09/21 04:48:33;;;;;;;;;;;;;;;17.10;78.17;99666.44;5005152;28;1871;-74
2023/09/21 04:50:58;;;;;;;;;;;;;;;17.12;77.60;99667.06;5025301;28;1902;-73
2023/09/21 04:53:23;;;;;;;;;;;;;;;17.13;77.88;99658.19;5024384;28;1193;-77
2023/09/21 04:55:49;;;;;;;;;;;;;;;17.15;77.79;99659.63;5026516;28;1217;-73
2023/09/21 04:58:14;;;;;;;;;;;;;;;17.17;77.83;99646.31;5016527;28;953;-75
2023/09/21 05:00:39;;;;;;;;;;;;;;;17.17;77.95;99654.97;5039365;28;1139;-75
2023/09/21 05:03:06;;;;;;;;;;;;;;;17.18;77.84;99663.66;5014492;28;1061;-73
2023/09/21 05:05:31;;;;;;;;;;;;;;;17.18;77.83;99643.50;5040154;28;1148;-74
2023/09/21 05:07:56;;;;;;;;;;;;;;;17.21;77.57;99652.78;5034964;28;1134;-75
2023/09/21 05:10:22;;;;;;;;;;;;;;;17.21;77.81;99653.59;5033620;28;1068;-74
2023/09/21 05:12:48;;;;;;;;;;;;;;;17.21;78.07;99658.03;5033811;28;1914;-74
2023/09/21 05:15:15;;;;;;;;;;;;;;;17.22;78.02;99649.97;5036900;28;1158;-74
2023/09/21 05:17:41;;;;;;;;;;;;;;;17.22;78.06;99649.97;5029747;28;1026;-75
2023/09/21 05:20:09;;;;;;;;;;;;;;;17.21;78.14;99656.22;5035326;28;1221;-75
2023/09/21 05:22:34;;;;;;;;;;;;;;;17.22;78.28;99649.16;5025055;28;1029;-74
2023/09/21 05:25:00;;;;;;;;;;;;;;;17.23;78.27;99642.91;5031982;28;1181;-74
2023/09/21 05:27:29;;;;;;;;;;;;;;;17.23;78.35;99650.75;5032832;28;1089;-74
2023/09/21 05:29:55;;;;;;;;;;;;;;;17.24;78.46;99652.38;5032661;28;1099;-74
2023/09/21 05:32:20;;;;;;;;;;;;;;;17.24;78.48;99647.94;5032978;28;1927;-74
2023/09/21 05:34:47;;;;;;;;;;;;;;;17.26;78.39;99639.88;5034259;28;1009;-74
2023/09/21 05:37:12;;;;;;;;;;;;;;;17.27;78.50;99643.34;5032546;28;1138;-74
2023/09/21 05:39:38;;;;;;;;;;;;;;;17.28;78.61;99643.13;5032347;28;1075;-74
2023/09/21 05:42:04;;;;;;;;;;;;;;;17.28;78.71;99637.88;5009385;28;1247;-75
2023/09/21 05:44:29;;;;;;;;;;;;;;;17.31;78.41;99640.09;5027725;28;1034;-74
2023/09/21 05:46:54;;;;;;;;;;;;;;;17.34;78.42;99647.56;5030878;28;1166;-74
2023/09/21 05:49:22;;;;;;;;;;;;;;;17.35;78.43;99654.44;5034964;28;1130;-75
2023/09/21 05:51:56;;;;;;;;;;;;;;;17.36;78.61;99660.47;5025314;28;1894;-74
2023/09/21 05:54:23;;;;;;;;;;;;;;;17.37;78.52;99656.84;5023133;28;1098;-77
2023/09/21 05:56:55;;;;;;;;;;;;;;;17.38;78.91;99659.28;5014080;28;1219;-75
2023/09/21 05:59:22;;;;;;;;;;;;;;;17.38;78.93;99648.00;5024252;28;1257;-76
2023/09/21 06:01:48;;;;;;;;;;;;;;;17.37;78.98;99649.78;5027694;28;1044;-75
2023/09/21 06:04:13;;;;;;;;;;;;;;;17.37;78.84;99652.41;5026983;28;1110;-74
2023/09/21 06:06:39;;;;;;;;;;;;;;;17.37;79.43;99641.13;5027217;28;1153;-75
2023/09/21 06:09:07;;;;;;;;;;;;;;;17.35;79.50;99643.94;5028504;28;1130;-74
2023/09/21 06:11:32;;;;;;;;;;;;;;;17.33;80.19;99645.16;5029382;28;2239;-74
2023/09/21 06:13:58;;;;;;;;;;;;;;;17.32;80.51;99648.75;5026290;28;1076;-75
2023/09/21 06:16:23;;;;;;;;;;;;;;;17.30;80.22;99656.81;5012277;28;1252;-77
2023/09/21 06:18:48;;;;;;;;;;;;;;;17.28;80.49;99651.00;5012149;28;1200;-74
2023/09/21 06:21:17;;;;;;;;;;;;;;;17.25;80.78;99656.59;5018207;28;1077;-74
2023/09/21 06:23:44;;;;;;;;;;;;;;;17.23;81.21;99661.25;5027132;28;1234;-74
2023/09/21 06:26:09;;;;;;;;;;;;;;;17.19;80.89;99665.25;5031777;28;985;-73
2023/09/21 06:28:34;;;;;;;;;;;;;;;17.16;81.80;99665.66;5030490;28;1159;-74
2023/09/21 06:31:04;;;;;;;;;;;;;;;17.15;82.25;99659.63;5027203;28;1902;-74
2023/09/21 06:33:30;;;;;;;;;;;;;;;17.14;82.15;99668.47;5014070;28;1468;-74
2023/09/21 06:35:55;;;;;;;;;;;;;;;17.11;82.20;99668.06;5021072;28;1103;-73
2023/09/21 06:38:21;;;;;;;;;;;;;;;17.06;82.98;99670.47;5019024;28;1374;-73
2023/09/21 06:40:46;;;;;;;;;;;;;;;17.03;83.37;99670.84;5023307;28;1155;-73
2023/09/21 06:43:12;;;;;;;;;;;;;;;17.00;83.92;99672.03;5032478;28;1122;-74
2023/09/21 06:45:37;;;;;;;;;;;;;;;16.98;83.99;99669.63;5035126;28;1088;-74
2023/09/21 06:48:03;;;;;;;;;;;;;;;16.96;84.33;99669.00;5006746;28;1381;-74
2023/09/21 06:50:29;;;;;;;;;;;;;;;16.93;84.64;99677.25;5031742;28;1115;-74
2023/09/21 06:52:55;;;;;;;;;;;;;;;16.90;84.35;99668.97;5006832;28;1922;-73
2023/09/21 06:55:20;;;;;;;;;;;;;;;16.89;85.05;99675.22;5030632;28;1062;-74
2023/09/21 06:57:45;;;;;;;;;;;;;;;16.87;86.90;99664.13;5034822;28;1171;-74
2023/09/21 07:00:11;;;;;;;;;;;;;;;16.86;85.34;99670.34;5024694;28;1110;-75
2023/09/21 07:02:36;;;;;;;;;;;;;;;16.84;84.77;99667.94;5027493;28;1143;-74
2023/09/21 07:05:01;;;;;;;;;;;;;;;16.86;86.63;99665.13;5029474;28;962;-74
2023/09/21 07:07:26;;;;;;;;;;;;;;;16.86;86.21;99671.19;5030735;28;1193;-73
2023/09/21 07:09:53;;;;;;;;;;;;;;;16.85;86.58;99674.78;5033631;28;1118;-74
2023/09/21 07:12:18;;;;;;;;;;;;;;;16.85;86.66;99674.78;5028553;28;1979;-74
2023/09/21 07:14:45;;;;;;;;;;;;;;;16.84;86.77;99673.16;5025590;28;1000;-76
2023/09/21 07:17:11;;;;;;;;;;;;;;;16.82;87.29;99679.63;5025510;28;1291;-73
2023/09/21 07:19:37;;;;;;;;;;;;;;;16.80;88.24;99682.41;5030279;28;1095;-78
2023/09/21 07:22:02;;;;;;;;;;;;;;;16.78;87.64;99684.41;5025822;28;986;-78
2023/09/21 07:24:29;;;;;;;;;;;;;;;16.74;87.54;99677.94;5018393;28;1365;-78
2023/09/21 07:26:56;;;;;;;;;;;;;;;16.70;88.51;99692.41;5021579;28;1337;-79
2023/09/21 07:29:21;;;;;;;;;;;;;;;16.67;88.35;99683.13;5021168;28;1719;-78
2023/09/21 07:31:46;;;;;;;;;;;;;;;16.66;88.53;99691.19;5032503;28;1969;-79
2023/09/21 07:34:11;;;;;;;;;;;;;;;16.62;89.01;99689.94;5032734;28;1252;-79
2023/09/21 07:36:38;;;;;;;;;;;;;;;16.60;89.58;99681.47;5019989;28;940;-78
2023/09/21 07:39:08;;;;;;;;;;;;;;;16.60;90.27;99686.72;5031659;28;1031;-78
2023/09/21 07:41:34;;;;;;;;;;;;;;;16.56;90.35;99685.47;5027171;28;974;-78
2023/09/21 07:43:59;;;;;;;;;;;;;;;16.55;91.28;99678.63;5021824;28;1103;-79
2023/09/21 07:46:25;;;;;;;;;;;;;;;16.53;90.52;99685.88;5031897;28;1272;-79
2023/09/21 07:48:50;;;;;;;;;;;;;;;16.50;91.18;99696.69;5029233;28;1301;-78
2023/09/21 07:51:16;;;;;;;;;;;;;;;16.46;92.09;99676.16;5033162;28;1969;-79
2023/09/21 07:53:42;;;;;;;;;;;;;;;16.44;92.41;99686.00;5030641;28;1135;-79
2023/09/21 07:56:10;;;;;;;;;;;;;;;16.41;93.38;99689.00;5029065;28;981;-78
2023/09/21 07:58:35;;;;;;;;;;;;;;;16.42;92.95;99695.84;5034612;28;994;-79
2023/09/21 08:01:00;;;;;;;;;;;;;;;16.44;92.61;99699.06;5028303;28;1119;-79
2023/09/21 08:03:26;;;;;;;;;;;;;;;16.46;93.33;99694.47;5025192;28;1067;-78
2023/09/21 08:05:54;;;;;;;;;;;;;;;16.48;93.00;99711.81;5031275;28;1163;-79
2023/09/21 08:08:19;;;;;;;;;;;;;;;16.49;93.11;99711.59;5010550;28;1380;-78
2023/09/21 08:10:45;;;;;;;;;;;;;;;16.50;93.83;99717.63;5034764;28;1894;-79
2023/09/21 08:13:10;;;;;;;;;;;;;;;16.50;93.79;99712.41;5032908;28;1102;-79
2023/09/21 08:15:36;;;;;;;;;;;;;;;16.52;93.79;99715.66;5017230;28;1196;-79
2023/09/21 08:18:01;;;;;;;;;;;;;;;16.53;94.39;99717.28;5035418;28;1087;-78
2023/09/21 08:20:26;;;;;;;;;;;;;;;16.53;94.12;99717.28;5030018;28;1164;-78
2023/09/21 08:22:52;;;;;;;;;;;;;;;16.53;94.26;99722.50;5029243;28;1060;-81
2023/09/21 08:25:17;;;;;;;;;;;;;;;16.52;94.16;99726.13;5025960;28;1216;-80
2023/09/21 08:27:42;;;;;;;;;;;;;;;16.53;94.86;99732.97;5027349;28;1185;-80
2023/09/21 08:30:08;;;;;;;;;;;;;;;16.52;95.22;99726.94;5027281;28;1032;-79
2023/09/21 08:32:34;;;;;;;;;;;;;;;16.52;95.21;99726.13;5026637;28;1926;-79
2023/09/21 08:34:59;;;;;;;;;;;;;;;16.53;94.84;99732.97;5022736;28;1090;-79
2023/09/21 08:37:24;;;;;;;;;;;;;;;16.54;95.07;99745.06;5027503;28;1528;-79
2023/09/21 08:39:49;;;;;;;;;;;;;;;16.57;95.10;99747.28;5027624;28;1135;-79
2023/09/21 08:42:14;;;;;;;;;;;;;;;16.49;95.51;99752.66;5032327;28;1032;-79
2023/09/21 08:44:43;;;;;;;;;;;;;;;16.39;94.72;99759.03;5037997;28;1147;-79
2023/09/21 08:47:12;;;;;;;;;;;;;;;16.31;94.73;99755.75;5031581;28;1162;-79
2023/09/21 08:49:38;;;;;;;;;;;;;;;16.20;94.63;99764.91;5039015;28;1142;-79
2023/09/21 08:52:05;;;;;;;;;;;;;;;16.18;94.69;99772.16;5031352;28;1925;-79
2023/09/21 08:54:31;;;;;;;;;;;;;;;16.06;94.49;99773.66;5042435;28;1029;-79
2023/09/21 08:56:56;;;;;;;;;;;;;;;15.97;94.31;99777.34;5028846;28;1341;-79
2023/09/21 08:59:21;;;;;;;;;;;;;;;15.89;94.08;99784.34;5033749;28;1173;-79
2023/09/21 09:01:47;;;;;;;;;;;;;;;15.82;94.23;99775.59;5033587;28;1098;-78
2023/09/21 09:04:14;;;;;;;;;;;;;;;15.76;94.07;99789.41;5031444;28;1091;-79
2023/09/21 09:06:39;;;;;;;;;;;;;;;15.70;94.32;99791.94;5039649;28;1091;-79
2023/09/21 09:09:06;;;;;;;;;;;;;;;15.66;94.68;99804.59;5027503;28;1079;-78
2023/09/21 09:11:34;;;;;;;;;;;;;;;15.66;94.71;99805.41;5028508;28;1890;-78
2023/09/21 09:13:59;;;;;;;;;;;;;;;15.65;94.47;99795.09;5034238;28;949;-78
2023/09/21 09:16:27;;;;;;;;;;;;;;;15.63;94.45;99800.53;5017221;28;1260;-79
2023/09/21 09:18:53;;;;;;;;;;;;;;;15.62;94.57;99792.84;5033512;28;971;-79
2023/09/21 09:21:18;;;;;;;;;;;;;;;15.59;94.52;99795.81;5027966;28;1212;-79
2023/09/21 09:23:44;;;;;;;;;;;;;;;15.53;94.14;99793.91;5027859;28;1101;-78
2023/09/21 09:26:11;;;;;;;;;;;;;;;15.48;94.04;99777.97;5008452;28;1189;-79
2023/09/21 09:28:37;;;;;;;;;;;;;;;15.37;93.79;99772.25;5020846;28;1096;-78
2023/09/21 09:31:06;;;;;;;;;;;;;;;15.37;94.82;99772.25;5028562;28;1906;-78
2023/09/21 09:33:33;;;;;;;;;;;;;;;15.37;94.48;99769.63;5030312;28;1240;-78
2023/09/21 09:35:58;;;;;;;;;;;;;;;15.34;94.46;99780.44;5006003;28;1349;-79
2023/09/21 09:38:23;;;;;;;;;;;;;;;15.33;94.29;99791.88;5026211;28;1033;-78
2023/09/21 09:40:49;;;;;;;;;;;;;;;15.31;94.42;99791.25;5022018;28;960;-78
2023/09/21 09:43:15;;;;;;;;;;;;;;;15.31;94.69;99790.41;5022865;28;1095;-78
2023/09/21 09:45:42;;;;;;;;;;;;;;;15.31;94.47;99800.88;5029915;28;1099;-78
2023/09/21 09:48:11;;;;;;;;;;;;;;;15.29;94.92;99767.09;5007145;28;1267;-79
2023/09/21 09:50:41;;;;;;;;;;;;;;;15.21;94.82;99743.69;5013374;28;1252;-78
2023/09/21 09:53:07;;;;;;;;;;;;;;;15.19;94.93;99750.06;5028384;28;1925;-79
2023/09/21 09:55:36;;;;;;;;;;;;;;;15.22;94.89;99754.94;5015762;28;1399;-79
2023/09/21 09:58:02;;;;;;;;;;;;;;;15.24;95.58;99753.75;5010815;28;1134;-79
2023/09/21 10:00:28;;;;;;;;;;;;;;;15.22;95.30;99745.31;5026030;28;1172;-79
2023/09/21 10:02:55;;;;;;;;;;;;;;;15.25;95.46;99754.56;5023646;28;1262;-79
2023/09/21 10:05:20;;;;;;;;;;;;;;;15.25;95.14;99755.38;5032314;28;1037;-79
2023/09/21 10:07:49;;;;;;;;;;;;;;;15.26;95.56;99762.25;5034640;28;1189;-79
2023/09/21 10:10:15;;;;;;;;;;;;;;;15.32;95.46;99758.91;5038379;28;1132;-79
2023/09/21 10:12:43;;;;;;;;;;;;;;;15.34;95.65;99749.06;5018462;28;1938;-79
2023/09/21 10:15:13;;;;;;;;;;;;;;;15.38;95.74;99760.78;5030852;28;1364;-79
2023/09/21 10:17:38;;;;;;;;;;;;;;;15.39;95.77;99754.56;5037300;28;1130;-79
2023/09/21 10:20:14;;;;;;;;;;;;;;;15.39;95.32;99751.97;5033261;28;1219;-78
2023/09/21 10:22:42;;;;;;;;;;;;;;;15.39;95.70;99757.19;5030971;28;952;-79
2023/09/21 10:25:08;;;;;;;;;;;;;;;15.40;95.88;99745.72;5031066;28;967;-79
2023/09/21 10:27:33;;;;;;;;;;;;;;;15.41;95.68;99752.56;5029129;28;1023;-79
2023/09/21 10:30:08;;;;;;;;;;;;;;;15.38;95.70;99744.31;5012277;28;1265;-79
2023/09/21 10:32:41;;;;;;;;;;;;;;;15.35;95.67;99745.47;5031216;28;1988;-78
2023/09/21 10:35:08;;;;;;;;;;;;;;;15.36;95.93;99744.47;5021392;28;908;-79
2023/09/21 10:37:34;;;;;;;;;;;;;;;15.39;95.98;99745.91;5004884;28;1482;-79
2023/09/21 10:39:59;;;;;;;;;;;;;;;15.41;96.16;99734.28;5028844;28;1287;-79
2023/09/21 10:42:25;;;;;;;;;;;;;;;15.40;95.83;99732.66;5008588;28;1205;-79
2023/09/21 10:44:56;;;;;;;;;;;;;;;15.39;96.03;99731.06;5018661;28;1107;-79
2023/09/21 10:47:38;;;;;;;;;;;;;;;15.36;95.63;99720.97;5019916;28;934;-79
2023/09/21 10:50:23;;;;;;;;;;;;;;;15.35;96.55;99724.56;5018628;28;1041;-79
2023/09/21 10:52:51;;;;;;;;;;;;;;;15.32;96.44;99719.72;5015019;28;1961;-79
2023/09/21 10:55:16;;;;;;;;;;;;;;;15.36;96.02;99720.16;5030444;28;1006;-79
2023/09/21 10:57:42;;;;;;;;;;;;;;;15.36;96.80;99720.97;5028634;28;1074;-79
2023/09/21 11:00:08;;;;;;;;;;;;;;;15.37;96.34;99722.59;5028698;28;983;-79
2023/09/21 11:02:38;;;;;;;;;;;;;;;15.41;96.91;99729.06;5032011;28;1107;-79
2023/09/21 11:05:04;;;;;;;;;;;;;;;15.45;96.76;99724.28;5034379;28;1155;-79
2023/09/21 11:07:29;;;;;;;;;;;;;;;15.48;97.59;99718.69;5017541;28;1135;-78
2023/09/21 11:09:54;;;;;;;;;;;;;;;15.44;97.01;99766.28;5036504;28;1131;-79
2023/09/21 11:12:21;;;;;;;;;;;;;;;15.47;98.60;99752.84;5029708;28;1898;-79
2023/09/21 11:14:48;;;;;;;;;;;;;;;15.22;99.81;99713.97;5016898;28;1429;-79
2023/09/21 11:17:16;;;;;;;;;;;;;;;15.01;100.00;99708.66;5028953;28;1104;-78
2023/09/21 11:19:42;;;;;;;;;;;;;;;14.90;100.00;99716.94;5022997;28;1187;-78
2023/09/21 11:22:08;;;;;;;;;;;;;;;14.85;100.00;99723.53;5026407;28;1060;-78
2023/09/21 11:24:35;;;;;;;;;;;;;;;14.84;100.00;99710.66;5009141;28;1211;-78
2023/09/21 11:27:03;;;;;;;;;;;;;;;14.84;100.00;99716.69;5033913;28;1167;-78
2023/09/21 11:29:28;;;;;;;;;;;;;;;14.75;100.00;99696.88;5018697;28;1122;-78
2023/09/21 11:31:54;;;;;;;;;;;;;;;14.77;100.00;99700.13;5026141;28;1906;-78
2023/09/21 11:34:20;;;;;;;;;;;;;;;14.77;100.00;99710.56;5030854;28;1088;-79
2023/09/21 11:36:45;;;;;;;;;;;;;;;14.74;100.00;99716.16;5028129;28;1167;-78
2023/09/21 11:39:11;;;;;;;;;;;;;;;14.70;100.00;99716.69;5012678;28;1282;-78
2023/09/21 11:41:37;;;;;;;;;;;;;;;14.67;100.00;99712.63;5026768;28;1373;-79
2023/09/21 11:44:04;;;;;;;;;;;;;;;14.68;100.00;99716.88;5028751;28;1345;-78
2023/09/21 11:46:29;;;;;;;;;;;;;;;14.64;100.00;99710.38;5025146;28;1047;-78
2023/09/21 11:48:56;;;;;;;;;;;;;;;14.51;100.00;99725.84;5029424;28;1090;-78
2023/09/21 11:51:26;;;;;;;;;;;;;;;14.49;100.00;99743.47;5011664;28;1977;-78
2023/09/21 11:53:51;;;;;;;;;;;;;;;14.47;100.00;99737.63;5008882;28;1185;-77
2023/09/21 11:56:17;;;;;;;;;;;;;;;14.43;100.00;99749.34;5021413;28;1041;-78
2023/09/21 11:58:43;;;;;;;;;;;;;;;14.37;100.00;99729.19;5028695;28;1011;-78
2023/09/21 12:03:33;;;;;;;;;;;;;;;14.29;100.00;99737.91;5039672;28;1210;-78
2023/09/21 12:05:59;;;;;;;;;;;;;;;14.31;100.00;99731.50;5036381;28;1054;-78
2023/09/21 12:08:25;;;;;;;;;;;;;;;14.26;100.00;99726.00;5038952;28;1079;-78
2023/09/21 12:10:50;;;;;;;;;;;;;;;14.22;100.00;99727.38;5040313;28;1062;-78
2023/09/21 12:13:16;;;;;;;;;;;;;;;14.19;100.00;99732.91;5043131;28;1890;-78
2023/09/21 12:15:42;;;;;;;;;;;;;;;14.18;100.00;99715.66;5030838;28;1082;-78
2023/09/21 12:18:07;;;;;;;;;;;;;;;14.18;100.00;99715.66;5031008;28;1615;-78
2023/09/21 12:20:33;;;;;;;;;;;;;;;14.21;100.00;99735.34;5032061;28;1141;-78
2023/09/21 12:22:58;;;;;;;;;;;;;;;14.21;100.00;99736.16;5030003;28;1241;-79
2023/09/21 12:25:26;;;;;;;;;;;;;;;14.26;100.00;99731.22;5039281;28;1131;-79
2023/09/21 12:27:51;;;;;;;;;;;;;;;14.26;100.00;99728.63;5023158;28;1102;-78
2023/09/21 12:30:17;;;;;;;;;;;;;;;14.25;100.00;99716.56;5032184;28;1120;-78
2023/09/21 12:32:43;;;;;;;;;;;;;;;14.25;100.00;99706.13;5015925;28;1969;-78
2023/09/21 12:35:09;;;;;;;;;;;;;;;14.31;100.00;99700.22;5020504;28;1192;-78
2023/09/21 12:37:39;;;;;;;;;;;;;;;14.33;100.00;99692.19;5014905;28;1168;-79
2023/09/21 12:40:11;;;;;;;;;;;;;;;14.35;100.00;99683.22;5029018;28;1102;-79
2023/09/21 12:42:36;;;;;;;;;;;;;;;14.38;100.00;99676.84;5029306;28;1030;-78
2023/09/21 12:45:02;;;;;;;;;;;;;;;14.40;100.00;99676.69;5030803;28;1117;-78
2023/09/21 12:47:27;;;;;;;;;;;;;;;14.47;100.00;99667.19;5028748;28;1096;-78
2023/09/21 12:49:52;;;;;;;;;;;;;;;14.55;100.00;99661.84;5027420;28;1149;-78
2023/09/21 12:52:18;;;;;;;;;;;;;;;14.59;100.00;99663.94;5030544;28;1969;-79
2023/09/21 12:54:43;;;;;;;;;;;;;;;14.60;100.00;99656.91;5023502;28;1300;-79